Time;durP1;ratioP1;P1;durP2;ratioP2;P2;SDS_P1;SDS_P2;PMS_P1;PMS_P2;Temp;Humidity;BMP_temperature;BMP_pressure;BME280_temperature;BME280_humidity;BME280_pressure;Samples;Min_cycle;Max_cycle;Signal;HPM_P1;HPM_P2
2023/02/23 00:02:03;;;;;;;23.40;12.70;;;12.30;62.00;;;7.68;100.00;95220.47;4952090;28;20029;-50
2023/02/23 00:04:29;;;;;;;23.08;13.20;;;12.30;62.10;;;7.67;100.00;95227.63;4940694;28;20030;-48
2023/02/23 00:06:57;;;;;;;21.90;12.20;;;12.30;62.10;;;7.63;100.00;95226.56;4934975;28;20034;-49
2023/02/23 00:09:33;;;;;;;26.98;13.13;;;12.20;62.10;;;7.67;100.00;95230.28;4949052;28;20141;-49
2023/02/23 00:12:06;;;;;;;26.50;12.93;;;12.30;62.30;;;7.68;100.00;95218.66;4951112;28;20022;-56
2023/02/23 00:14:37;;;;;;;22.92;12.55;;;12.20;62.30;;;7.69;100.00;95222.88;4949011;28;20061;-49
2023/02/23 00:17:17;;;;;;;28.75;12.65;;;12.30;62.50;;;7.68;100.00;95216.00;4939093;28;20027;-51
2023/02/23 00:19:48;;;;;;;24.60;12.32;;;12.30;62.70;;;7.69;100.00;95222.88;4951099;28;20022;-51
2023/02/23 00:22:17;;;;;;;24.45;12.60;;;12.30;62.60;;;7.68;100.00;95221.28;4950750;28;20032;-51
2023/02/23 00:24:49;;;;;;;22.75;13.85;;;12.30;62.70;;;7.68;100.00;95229.25;4950763;28;20023;-52
2023/02/23 00:27:19;;;;;;;24.08;12.68;;;12.30;62.90;;;7.68;100.00;95228.44;4950903;28;20026;-48
2023/02/23 00:29:48;;;;;;;20.50;12.10;;;12.30;62.80;;;7.67;100.00;95218.88;4949812;28;20042;-55
2023/02/23 00:32:18;;;;;;;20.27;11.80;;;12.20;62.80;;;7.65;100.00;95221.81;4949896;29;20030;-57
2023/02/23 00:34:48;;;;;;;21.70;11.75;;;12.20;62.90;;;7.64;100.00;95225.50;4949121;29;20050;-50
2023/02/23 00:37:21;;;;;;;23.42;12.65;;;12.20;62.90;;;7.62;100.00;95220.44;4951784;28;20062;-51
2023/02/23 00:39:51;;;;;;;25.67;12.45;;;12.20;63.10;;;7.62;100.00;95217.81;4949955;28;20029;-52
2023/02/23 00:42:20;;;;;;;27.83;12.93;;;12.20;63.10;;;7.65;100.00;95227.09;4951644;28;20109;-50
2023/02/23 00:44:56;;;;;;;25.17;13.13;;;12.20;63.60;;;7.65;100.00;95224.47;4950446;29;20165;-51
2023/02/23 00:47:24;;;;;;;23.92;12.93;;;12.20;63.40;;;7.63;100.00;95218.59;4960713;28;20642;-48
2023/02/23 00:49:53;;;;;;;22.15;12.90;;;12.20;63.30;;;7.64;100.00;95217.53;4950166;29;20027;-46
2023/02/23 00:52:24;;;;;;;24.27;13.02;;;12.20;63.40;;;7.62;100.00;95203.75;4949684;28;20041;-47
2023/02/23 00:54:56;;;;;;;24.25;12.85;;;12.20;63.50;;;7.59;100.00;95215.66;4951152;28;20107;-49
2023/02/23 00:57:22;;;;;;;23.13;13.25;;;12.20;63.40;;;7.57;100.00;95216.97;4953026;28;20027;-47
2023/02/23 00:59:48;;;;;;;25.60;12.68;;;12.20;63.30;;;7.55;100.00;95209.28;4954373;28;20113;-57
2023/02/23 01:02:14;;;;;;;22.25;13.15;;;12.10;63.40;;;7.53;100.00;95208.72;4954544;28;20038;-53
2023/02/23 01:04:40;;;;;;;24.15;13.68;;;12.10;63.40;;;7.54;100.00;95215.63;4953795;28;20033;-47
2023/02/23 01:07:11;;;;;;;20.20;12.68;;;12.10;63.50;;;7.53;100.00;95206.06;4938075;28;20026;-47
2023/02/23 01:09:37;;;;;;;21.58;12.20;;;12.10;63.70;;;7.51;100.00;95210.81;4963699;28;20487;-48
2023/02/23 01:12:06;;;;;;;28.38;14.23;;;12.10;63.60;;;7.48;100.00;95206.03;4957483;28;20749;-51
2023/02/23 01:14:34;;;;;;;23.15;13.02;;;12.10;63.70;;;7.44;100.00;95206.81;4952908;28;20501;-47
2023/02/23 01:17:00;;;;;;;29.38;14.15;;;12.10;63.80;;;7.41;100.00;95202.81;4938920;28;20085;-49
2023/02/23 01:19:27;;;;;;;24.83;13.05;;;12.10;63.80;;;7.41;100.00;95208.91;4958167;28;20019;-47
2023/02/23 01:21:56;;;;;;;22.85;13.07;;;12.10;63.90;;;7.40;100.00;95203.84;4952129;28;20034;-47
2023/02/23 01:24:25;;;;;;;24.45;12.52;;;12.00;64.00;;;7.39;100.00;95199.59;4954838;28;20030;-47
2023/02/23 01:26:53;;;;;;;26.77;12.93;;;12.00;64.00;;;7.41;100.00;95205.44;4954335;28;20037;-47
2023/02/23 01:29:21;;;;;;;30.70;12.57;;;12.00;64.10;;;7.36;100.00;95200.09;4934074;29;20030;-47
2023/02/23 01:31:51;;;;;;;24.63;12.73;;;12.00;64.10;;;7.35;100.00;95199.31;4953528;28;20508;-49
2023/02/23 01:34:21;;;;;;;24.65;12.95;;;12.00;64.10;;;7.34;100.00;95204.88;4952126;28;20042;-47
2023/02/23 01:36:46;;;;;;;23.60;12.82;;;12.00;64.10;;;7.31;100.00;95205.38;4953278;28;20041;-48
2023/02/23 01:39:19;;;;;;;25.77;12.48;;;11.90;64.00;;;7.29;100.00;95192.38;4943712;28;20026;-47
2023/02/23 01:41:45;;;;;;;26.70;13.13;;;11.90;64.20;;;7.24;100.00;95199.47;4953440;28;20022;-51
2023/02/23 01:44:14;;;;;;;25.58;12.77;;;11.90;64.10;;;7.24;100.00;95197.66;4954594;28;20107;-47
2023/02/23 01:46:44;;;;;;;22.63;13.23;;;11.80;64.30;;;7.27;100.00;95193.66;4958990;28;20061;-48
2023/02/23 01:49:33;;;;;;;23.00;11.95;;;11.90;64.40;;;7.28;100.00;95195.28;4957354;28;20026;-49
2023/02/23 01:52:02;;;;;;;22.60;12.77;;;11.90;64.70;;;7.28;100.00;95188.13;4968262;28;20030;-47
2023/02/23 01:54:49;;;;;;;23.63;11.55;;;11.80;64.60;;;7.26;100.00;95192.06;4953644;28;20073;-48
2023/02/23 01:57:19;;;;;;;22.40;11.70;;;11.90;64.80;;;7.25;100.00;95185.97;4951890;28;20482;-53
2023/02/23 01:59:49;;;;;;;22.60;11.88;;;11.90;64.70;;;7.26;100.00;95189.44;4934553;28;20135;-51
2023/02/23 02:02:31;;;;;;;20.55;11.20;;;11.80;64.70;;;7.27;100.00;95191.00;4954059;28;20057;-52
2023/02/23 02:05:01;;;;;;;19.50;11.38;;;11.90;65.00;;;7.29;100.00;95188.91;4945756;28;20019;-47
2023/02/23 02:07:34;;;;;;;24.17;12.25;;;11.80;64.80;;;7.28;100.00;95185.47;4951857;28;20552;-47
2023/02/23 02:12:51;;;;;;;23.45;12.52;;;11.80;64.80;;;7.29;100.00;95183.63;4942159;28;20101;-51
2023/02/23 02:15:37;;;;;;;22.75;12.13;;;11.80;65.10;;;7.28;100.00;95180.19;4948421;28;20026;-48
2023/02/23 02:19:28;;;;;;;19.80;11.77;;;11.90;65.20;;;7.29;100.00;95188.91;4957346;28;20027;-48
2023/02/23 02:23:01;;;;;;;20.65;12.25;;;11.90;65.00;;;7.27;100.00;95185.72;4941367;28;20089;-47
2023/02/23 02:26:14;;;;;;;22.58;11.57;;;11.80;64.90;;;7.28;100.00;95179.38;4941826;28;20081;-48
2023/02/23 02:29:13;;;;;;;21.50;12.07;;;11.80;64.90;;;7.24;100.00;95171.16;4967033;28;20413;-53
2023/02/23 02:32:58;;;;;;;19.90;11.60;;;11.80;65.00;;;7.22;100.00;95175.09;4967554;28;20169;-50
2023/02/23 02:35:55;;;;;;;21.83;11.50;;;11.80;64.90;;;7.24;100.00;95172.97;4943172;28;20042;-50
2023/02/23 02:38:41;;;;;;;22.98;12.13;;;11.80;65.00;;;7.27;100.00;95172.47;4952028;28;20034;-54
2023/02/23 02:41:35;;;;;;;19.38;11.18;;;11.80;65.10;;;7.29;100.00;95173.81;4950342;28;20393;-50
2023/02/23 02:44:41;;;;;;;19.40;12.00;;;11.80;65.10;;;7.26;100.00;95169.03;4952416;28;20065;-47
2023/02/23 02:47:25;;;;;;;19.95;11.73;;;11.80;65.10;;;7.26;100.00;95166.38;4954860;28;20063;-48
2023/02/23 02:50:14;;;;;;;20.13;10.98;;;11.80;65.00;;;7.21;100.00;95168.19;4951925;28;20033;-50
2023/02/23 02:52:56;;;;;;;21.60;11.27;;;11.80;65.00;;;7.21;100.00;95169.00;4951467;28;20022;-50
2023/02/23 02:55:36;;;;;;;22.27;12.25;;;11.80;65.80;;;7.20;100.00;95164.75;4952144;28;20489;-50
2023/02/23 02:58:06;;;;;;;17.95;11.13;;;11.80;64.90;;;7.16;100.00;95172.41;4941819;28;20047;-51
2023/02/23 04:18:11;;;;;;;27.08;14.07;;;11.60;65.90;;;6.99;100.00;95160.31;4946738;28;20113;-51
2023/02/23 04:20:39;;;;;;;28.02;13.40;;;11.50;65.90;;;6.98;100.00;95161.38;4946139;28;20031;-53
2023/02/23 04:23:11;;;;;;;25.60;13.63;;;11.60;65.90;;;6.99;100.00;95160.31;4922183;29;20457;-50
2023/02/23 04:25:43;;;;;;;29.90;15.82;;;11.60;65.90;;;6.98;100.00;95164.81;4947235;28;20044;-53
2023/02/23 04:28:12;;;;;;;26.23;14.70;;;11.60;66.00;;;6.98;100.00;95167.47;4945947;28;20038;-50
2023/02/23 04:30:38;;;;;;;25.88;15.10;;;11.60;65.90;;;6.98;100.00;95161.38;4943276;28;20054;-51
2023/02/23 04:33:10;;;;;;;24.52;13.95;;;11.60;65.90;;;6.99;100.00;95165.63;4931233;29;20031;-51
2023/02/23 04:35:40;;;;;;;25.70;14.53;;;11.60;66.20;;;6.98;100.00;95158.72;4932411;29;20031;-51
2023/02/23 04:38:07;;;;;;;25.70;13.25;;;11.60;66.10;;;6.93;100.00;95162.16;4932223;29;20031;-50
2023/02/23 04:40:34;;;;;;;26.10;13.50;;;11.60;66.10;;;6.93;100.00;95157.66;4930934;28;20054;-50
2023/02/23 04:43:04;;;;;;;26.42;13.40;;;11.60;66.00;;;6.93;100.00;95157.66;4946393;29;20031;-55
2023/02/23 04:45:32;;;;;;;21.08;13.05;;;11.60;66.00;;;6.85;100.00;95162.59;4914898;29;20034;-56
2023/02/23 04:48:13;;;;;;;26.92;13.43;;;11.60;66.00;;;6.88;100.00;95162.09;4946952;28;20035;-51
2023/02/23 04:50:39;;;;;;;24.83;13.10;;;11.60;66.30;;;6.92;100.00;95163.97;4931248;29;20054;-52
2023/02/23 04:53:05;;;;;;;23.25;13.40;;;11.60;66.20;;;6.98;100.00;95164.03;4931879;29;20493;-52
2023/02/23 04:55:31;;;;;;;25.20;13.85;;;11.60;66.20;;;6.99;100.00;95168.25;4931211;29;20066;-55
2023/02/23 04:58:03;;;;;;;25.33;13.50;;;11.60;66.20;;;7.02;100.00;95165.94;4930309;29;20033;-50
2023/02/23 05:00:30;;;;;;;22.00;12.98;;;11.70;66.40;;;7.04;100.00;95169.13;4946432;28;20118;-54
2023/02/23 05:02:59;;;;;;;21.88;12.65;;;11.70;66.30;;;7.08;100.00;95161.47;4930617;29;20031;-51
2023/02/23 05:05:25;;;;;;;21.42;12.15;;;11.70;66.40;;;7.07;100.00;95155.38;4932059;29;20035;-53
2023/02/23 05:07:52;;;;;;;23.10;12.38;;;11.70;66.30;;;7.07;100.00;95154.56;4946604;29;20031;-53
2023/02/23 05:10:18;;;;;;;26.58;13.30;;;11.70;66.30;;;7.08;100.00;95164.94;4929148;29;20027;-55
2023/02/23 05:12:47;;;;;;;20.45;12.30;;;11.80;66.40;;;7.08;100.00;95157.00;4946609;29;20536;-52
2023/02/23 05:15:13;;;;;;;23.67;12.82;;;11.70;66.40;;;7.10;100.00;95162.00;4930198;29;20020;-51
2023/02/23 05:17:40;;;;;;;22.33;11.82;;;11.80;66.30;;;7.09;100.00;95161.22;4928037;29;20034;-51
2023/02/23 05:20:12;;;;;;;19.65;12.27;;;11.80;66.40;;;7.09;100.00;95158.56;4931354;29;20051;-54
2023/02/23 05:22:46;;;;;;;22.33;12.18;;;11.80;66.50;;;7.09;100.00;95157.78;4929651;29;20113;-50
2023/02/23 05:25:13;;;;;;;22.90;11.50;;;11.80;66.40;;;7.11;100.00;95155.66;4943657;29;20031;-50
2023/02/23 05:27:40;;;;;;;19.33;11.55;;;11.80;66.40;;;7.14;100.00;95161.25;4931762;28;20019;-50
2023/02/23 05:30:12;;;;;;;21.98;11.55;;;11.80;66.40;;;7.14;100.00;95163.91;4946205;29;20031;-54
2023/02/23 05:32:38;;;;;;;20.13;11.98;;;11.80;66.60;;;7.14;100.00;95163.09;4918520;29;20461;-53
2023/02/23 05:35:04;;;;;;;21.98;12.40;;;11.80;66.50;;;7.13;100.00;95162.31;4930600;29;20029;-56
2023/02/23 05:37:30;;;;;;;19.33;10.90;;;11.80;66.50;;;7.12;100.00;95157.28;4931364;29;20378;-54
2023/02/23 05:39:56;;;;;;;21.88;12.25;;;11.80;66.40;;;7.10;100.00;95165.47;4929255;29;20030;-56
2023/02/23 05:42:25;;;;;;;23.52;11.32;;;11.80;66.40;;;7.12;100.00;95155.41;4933312;29;20041;-54
2023/02/23 05:44:54;;;;;;;18.77;12.27;;;11.80;66.40;;;7.11;100.00;95161.78;4930623;28;20033;-53
2023/02/23 05:47:26;;;;;;;19.10;11.20;;;11.80;66.40;;;7.12;100.00;95150.13;4938432;28;20031;-53
2023/02/23 05:49:52;;;;;;;20.15;11.43;;;11.80;66.50;;;7.11;100.00;95156.47;4924464;29;20042;-56
2023/02/23 05:52:20;;;;;;;22.10;11.80;;;11.80;66.40;;;7.10;100.00;95156.72;4930578;29;20023;-57
2023/02/23 05:54:49;;;;;;;24.17;12.50;;;11.80;66.40;;;7.06;100.00;95153.78;4935277;29;20023;-53
2023/02/23 05:57:20;;;;;;;19.98;11.13;;;11.80;66.40;;;7.07;100.00;95157.22;4933005;29;20031;-52
2023/02/23 05:59:46;;;;;;;21.25;12.38;;;11.80;66.40;;;7.09;100.00;95152.47;4923015;29;20443;-50
2023/02/23 06:02:12;;;;;;;20.25;10.57;;;11.80;66.40;;;7.05;100.00;95156.66;4919961;29;20077;-51
2023/02/23 06:04:45;;;;;;;18.50;10.65;;;11.70;66.40;;;7.04;100.00;95158.53;4945611;28;20024;-51
2023/02/23 06:07:11;;;;;;;19.80;11.73;;;11.80;66.50;;;7.01;100.00;95160.88;4934166;29;20039;-56
2023/02/23 06:09:40;;;;;;;20.02;10.45;;;11.70;66.30;;;7.00;100.00;95164.59;4922161;29;20046;-53
2023/02/23 06:12:07;;;;;;;20.23;11.60;;;11.70;66.40;;;7.00;100.00;95167.22;4930341;29;20030;-55
2023/02/23 06:14:34;;;;;;;21.52;12.10;;;11.70;66.30;;;7.00;100.00;95165.38;4929139;28;20042;-54
2023/02/23 06:17:00;;;;;;;24.55;12.20;;;11.70;66.30;;;6.99;100.00;95163.78;4937270;28;20043;-54
2023/02/23 06:19:26;;;;;;;19.40;11.07;;;11.70;66.40;;;6.99;100.00;95161.16;4933165;29;20433;-58
2023/02/23 06:21:58;;;;;;;18.92;11.40;;;11.70;66.40;;;6.97;100.00;95157.94;4932507;29;20027;-54
2023/02/23 06:24:27;;;;;;;19.42;11.63;;;11.70;66.60;;;6.97;100.00;95163.22;4933608;29;20541;-52
2023/02/23 06:26:53;;;;;;;17.90;11.60;;;11.70;66.40;;;6.95;100.00;95163.47;4932357;29;20371;-53
2023/02/23 06:29:18;;;;;;;22.55;12.05;;;11.70;66.50;;;6.95;100.00;95166.13;4932273;29;20026;-51
2023/02/23 06:31:55;;;;;;;22.67;11.77;;;11.70;66.40;;;6.94;100.00;95169.03;4932975;29;20119;-53
2023/02/23 06:34:24;;;;;;;23.55;13.27;;;11.70;66.60;;;6.92;100.00;95166.63;4944531;28;20027;-54
2023/02/23 06:36:50;;;;;;;22.40;12.40;;;11.60;66.50;;;6.93;100.00;95164.78;4923269;29;20035;-58
2023/02/23 06:39:16;;;;;;;21.42;12.52;;;11.60;66.60;;;6.93;100.00;95168.25;4932388;29;20520;-51
2023/02/23 06:41:42;;;;;;;20.25;12.05;;;11.60;66.50;;;6.95;100.00;95167.97;4931366;29;20035;-50
2023/02/23 06:44:10;;;;;;;26.45;12.30;;;11.60;66.50;;;6.92;100.00;95173.78;4945837;28;20023;-50
2023/02/23 06:46:36;;;;;;;25.42;13.20;;;11.70;66.70;;;6.94;100.00;95169.81;4936773;28;20027;-50
2023/02/23 06:49:03;;;;;;;24.23;12.93;;;11.70;66.60;;;6.98;100.00;95180.72;4946896;28;20038;-52
2023/02/23 06:51:29;;;;;;;24.70;13.25;;;11.70;66.70;;;6.96;100.00;95174.88;4929903;29;20047;-50
2023/02/23 06:53:55;;;;;;;22.75;13.38;;;11.70;66.70;;;6.99;100.00;95171.75;4944783;28;20030;-54
2023/02/23 06:56:21;;;;;;;23.85;14.23;;;11.70;66.70;;;7.00;100.00;95170.69;4930594;29;20704;-50
2023/02/23 06:58:47;;;;;;;24.42;13.75;;;11.80;66.70;;;7.01;100.00;95180.22;4943209;28;20488;-52
2023/02/23 07:01:18;;;;;;;22.50;13.40;;;11.80;66.70;;;7.04;100.00;95178.91;4932762;29;20069;-55
2023/02/23 07:03:47;;;;;;;25.70;13.50;;;11.80;66.70;;;7.08;100.00;95183.47;4945878;28;20023;-51
2023/02/23 07:06:13;;;;;;;22.83;13.52;;;11.90;66.80;;;7.06;100.00;95187.41;4931076;29;20474;-54
2023/02/23 07:08:38;;;;;;;22.08;12.77;;;11.90;66.60;;;7.09;100.00;95187.72;4930562;28;20038;-52
2023/02/23 07:11:14;;;;;;;25.33;12.98;;;11.90;66.60;;;7.15;100.00;95194.66;4946760;28;20771;-52
2023/02/23 07:13:41;;;;;;;22.63;12.98;;;11.90;66.60;;;7.18;100.00;95193.34;4942270;28;20016;-50
2023/02/23 07:16:08;;;;;;;24.25;13.13;;;12.00;66.60;;;7.21;100.00;95192.84;4941582;28;20027;-55
2023/02/23 07:18:34;;;;;;;19.10;12.55;;;12.00;66.60;;;7.24;100.00;95196.81;4931659;29;20025;-53
2023/02/23 07:21:03;;;;;;;21.00;11.88;;;12.00;66.50;;;7.27;100.00;95193.66;4931915;29;20019;-56
2023/02/23 07:23:29;;;;;;;23.67;13.65;;;12.10;66.60;;;7.26;100.00;95197.38;4916418;29;20030;-50
2023/02/23 07:26:04;;;;;;;22.40;13.20;;;12.10;66.50;;;7.32;100.00;95196.38;4933560;29;20031;-50
2023/02/23 07:28:29;;;;;;;22.35;13.95;;;12.20;66.70;;;7.28;100.00;95201.38;4944085;28;20027;-57
2023/02/23 07:31:01;;;;;;;23.20;12.88;;;12.20;66.40;;;7.35;100.00;95201.94;4927386;29;20617;-50
2023/02/23 07:33:27;;;;;;;22.45;13.25;;;12.30;66.50;;;7.44;100.00;95207.59;4939802;28;20027;-53
2023/02/23 07:35:53;;;;;;;20.98;12.90;;;12.30;66.30;;;7.50;100.00;95208.44;4940061;28;20027;-51
2023/02/23 07:38:19;;;;;;;22.60;14.05;;;12.40;66.40;;;7.58;100.00;95210.59;4844176;29;21075;-51
2023/02/23 07:40:44;;;;;;;24.50;13.73;;;12.50;66.30;;;7.66;100.00;95212.78;4926150;28;20031;-55
2023/02/23 07:43:10;;;;;;;22.85;13.35;;;12.60;66.20;;;7.73;100.00;95213.34;4947744;28;20081;-58
2023/02/23 07:45:40;;;;;;;20.17;12.75;;;12.70;66.20;;;7.82;100.00;95217.13;4932452;29;20111;-51
2023/02/23 07:48:06;;;;;;;18.98;12.25;;;12.80;66.10;;;7.89;100.00;95219.56;4943593;28;20510;-50
2023/02/23 07:50:32;;;;;;;19.63;12.52;;;12.90;66.00;;;7.98;100.00;95220.69;4927749;29;20063;-52
2023/02/23 07:52:58;;;;;;;17.92;12.13;;;13.00;66.00;;;8.06;100.00;95216.75;4932057;29;20023;-52
2023/02/23 07:55:27;;;;;;;19.80;11.82;;;13.10;65.80;;;8.17;100.00;95228.22;4947451;28;20034;-51
2023/02/23 07:57:56;;;;;;;20.30;11.80;;;13.20;65.70;;;8.24;100.00;95220.81;4943500;28;20032;-52
2023/02/23 08:00:23;;;;;;;17.90;11.43;;;13.30;65.60;;;8.28;100.00;95220.03;4929357;29;20064;-50
2023/02/23 08:02:52;;;;;;;19.35;11.13;;;13.40;65.40;;;8.34;100.00;95220.88;4946181;28;20030;-51
2023/02/23 08:05:30;;;;;;;19.45;11.77;;;13.60;65.10;;;8.40;100.00;95221.69;4932964;29;20556;-50
2023/02/23 08:07:59;;;;;;;17.40;10.48;;;13.70;64.90;;;8.49;100.00;95230.78;4931719;29;20556;-54
2023/02/23 08:10:27;;;;;;;16.08;9.55;;;13.80;64.70;;;8.56;100.00;95224.19;4927024;29;20053;-55
2023/02/23 08:12:59;;;;;;;17.90;10.23;;;13.90;64.40;;;8.68;100.00;95223.13;4944336;28;20030;-51
2023/02/23 08:15:25;;;;;;;14.70;10.00;;;14.00;64.10;;;8.69;98.73;95222.09;4932268;29;20080;-51
2023/02/23 08:17:51;;;;;;;14.70;9.32;;;14.10;63.90;;;8.82;99.59;95226.13;4932600;29;20521;-56
2023/02/23 08:20:26;;;;;;;18.15;9.90;;;14.20;63.50;;;9.01;99.49;95227.22;4932205;29;20031;-51
2023/02/23 08:23:07;;;;;;;12.80;8.75;;;14.40;63.50;;;9.12;97.16;95228.84;4924382;28;20031;-55
2023/02/23 08:25:37;;;;;;;16.25;9.55;;;14.60;63.20;;;9.27;96.76;95223.56;4947355;28;20023;-53
2023/02/23 08:28:05;;;;;;;19.88;9.52;;;14.70;62.90;;;9.43;95.77;95228.84;4942686;28;20520;-53
2023/02/23 08:30:32;;;;;;;12.95;8.95;;;14.80;62.60;;;9.62;95.32;95229.13;4946819;28;20490;-56
2023/02/23 08:33:00;;;;;;;14.85;9.00;;;15.00;62.40;;;9.77;93.76;95218.47;4931401;29;20034;-53
2023/02/23 08:35:32;;;;;;;16.98;8.90;;;15.20;62.20;;;10.00;91.16;95224.28;4922588;29;20542;-51
2023/02/23 08:37:58;;;;;;;12.38;8.50;;;15.50;61.60;;;10.12;90.46;95222.94;4945471;29;20034;-55
2023/02/23 08:40:27;;;;;;;14.32;8.48;;;15.70;61.40;;;10.25;88.44;95229.56;4942974;28;20015;-52
2023/02/23 08:42:52;;;;;;;12.50;8.63;;;15.80;61.10;;;10.37;87.83;95226.63;4931811;29;20050;-55
2023/02/23 08:45:19;;;;;;;11.57;8.43;;;15.90;60.80;;;10.55;87.18;95227.91;4945311;28;20050;-54
2023/02/23 08:47:57;;;;;;;11.68;8.20;;;16.00;60.40;;;10.68;86.17;95226.50;4946137;29;20045;-52
2023/02/23 08:50:26;;;;;;;11.50;7.55;;;16.10;60.00;;;10.85;86.06;95224.31;4924569;29;20035;-53
2023/02/23 08:53:00;;;;;;;9.93;7.53;;;16.30;59.90;;;10.98;83.47;95221.03;4930932;29;20023;-55
2023/02/23 08:55:34;;;;;;;10.13;7.40;;;16.50;59.50;;;10.86;81.08;95226.69;4937327;28;20494;-55
2023/02/23 08:58:00;;;;;;;10.77;7.45;;;16.50;58.90;;;10.86;80.77;95225.88;4929883;29;20031;-54
2023/02/23 09:00:26;;;;;;;12.98;7.50;;;16.50;58.70;;;10.79;82.31;95225.41;4966483;23;20062;-50
2023/02/23 09:02:54;;;;;;;11.70;7.93;;;16.40;58.50;;;10.79;81.67;95228.06;4926982;29;20046;-49
2023/02/23 09:05:39;;;;;;;10.75;7.82;;;16.30;58.40;;;10.74;83.69;95228.88;4929212;29;20053;-54
2023/02/23 09:08:05;;;;;;;9.95;7.50;;;16.20;58.40;;;10.59;85.46;95223.59;4920609;29;20038;-50
2023/02/23 09:10:32;;;;;;;11.68;8.35;;;16.10;58.40;;;10.50;86.85;95235.88;4904013;29;20517;-47
2023/02/23 09:13:06;;;;;;;12.65;7.43;;;15.90;58.40;;;10.45;87.03;95230.59;4909345;29;20032;-51
2023/02/23 09:15:32;;;;;;;11.95;8.23;;;15.80;58.50;;;10.45;87.85;95230.59;4923437;29;20047;-51
2023/02/23 09:18:01;;;;;;;14.00;8.00;;;15.80;58.70;;;10.45;88.13;95235.94;4913691;29;20573;-49
2023/02/23 09:20:28;;;;;;;13.52;8.13;;;15.70;58.80;;;10.41;89.66;95236.47;4912411;29;20082;-53
2023/02/23 09:22:54;;;;;;;11.65;8.00;;;15.70;58.90;;;10.41;90.09;95238.34;4940404;28;20212;-52
2023/02/23 09:25:22;;;;;;;12.55;8.90;;;15.70;59.00;;;10.37;90.41;95230.09;4945284;28;20049;-52
2023/02/23 09:27:52;;;;;;;12.20;8.02;;;15.70;59.10;;;10.37;89.05;95240.75;4944119;28;20024;-53
2023/02/23 09:30:21;;;;;;;11.20;8.43;;;15.70;59.00;;;10.33;87.79;95231.69;4925556;29;20114;-49
2023/02/23 09:32:52;;;;;;;13.32;8.13;;;15.70;58.80;;;10.34;89.50;95235.97;4911939;29;20020;-47
2023/02/23 09:35:24;;;;;;;15.10;9.20;;;15.70;58.80;;;10.37;88.20;95237.25;4909329;29;20031;-48
2023/02/23 09:37:55;;;;;;;14.88;7.70;;;15.80;58.70;;;10.16;87.92;95236.50;4909672;29;20475;-51
2023/02/23 09:40:52;;;;;;;12.13;8.30;;;15.90;58.60;;;10.27;89.35;95240.75;4909898;29;20046;-48
2023/02/23 09:44:29;;;;;;;11.60;8.30;;;16.00;58.50;;;10.48;90.23;95236.19;4909513;29;20475;-49
2023/02/23 09:47:21;;;;;;;12.63;8.48;;;16.10;58.60;;;10.61;88.91;95242.78;4911564;29;20039;-50
2023/02/23 09:49:51;;;;;;;10.57;7.93;;;16.30;58.50;;;10.76;89.89;95241.94;4926135;29;20036;-49
2023/02/23 09:52:46;;;;;;;12.15;8.38;;;16.50;58.40;;;11.12;87.61;95229.19;4908071;29;20368;-49
2023/02/23 09:55:16;;;;;;;12.18;8.23;;;16.90;58.20;;;11.44;86.42;95238.59;4924565;29;20479;-51
2023/02/23 09:57:47;;;;;;;10.75;7.68;;;17.40;57.80;;;11.71;82.09;95228.25;4906077;29;20059;-52
2023/02/23 10:00:26;;;;;;;10.90;7.63;;;17.90;57.30;;;12.11;83.08;95225.53;4942306;28;20047;-51
2023/02/23 10:03:31;;;;;;;14.70;8.10;;;18.40;56.90;;;12.68;78.45;95229.94;4938795;28;20098;-48
2023/02/23 10:06:07;;;;;;;11.43;8.02;;;19.10;56.30;;;13.17;77.59;95236.81;4935374;28;20407;-52
2023/02/23 10:09:13;;;;;;;13.43;8.93;;;19.60;55.70;;;13.53;72.87;95230.16;4913110;29;20020;-48
2023/02/23 10:12:03;;;;;;;11.07;8.32;;;20.10;54.80;;;13.70;70.61;95235.78;4910651;29;20039;-51
2023/02/23 10:15:05;;;;;;;9.65;7.47;;;20.40;53.90;;;13.98;70.39;95223.28;4914754;29;20550;-51
2023/02/23 10:18:55;;;;;;;13.07;8.65;;;20.80;53.40;;;14.39;67.03;95227.09;4925260;29;20040;-54
2023/02/23 10:21:41;;;;;;;8.82;6.95;;;21.20;53.10;;;14.61;64.65;95218.41;4884237;29;20039;-50
2023/02/23 10:24:24;;;;;;;10.60;7.68;;;21.70;52.00;;;14.89;63.35;95221.84;4908085;29;20463;-53
2023/02/23 10:27:09;;;;;;;11.32;6.97;;;21.90;50.90;;;14.90;61.29;95218.84;4900603;29;20834;-51
2023/02/23 10:29:44;;;;;;;11.98;7.82;;;22.20;50.00;;;15.12;62.47;95211.97;4925884;29;20514;-49
2023/02/23 10:33:09;;;;;;;12.02;7.90;;;22.30;49.60;;;15.36;59.30;95220.56;4914290;29;20142;-55
2023/02/23 10:35:38;;;;;;;9.93;7.47;;;22.60;49.30;;;15.67;62.26;95215.28;4877277;29;20040;-52
2023/02/23 10:38:04;;;;;;;12.25;7.40;;;23.00;48.60;;;15.81;59.67;95209.84;4907373;29;20063;-53
2023/02/23 10:40:34;;;;;;;14.18;7.93;;;23.30;48.10;;;15.99;58.45;95212.66;4907186;29;20118;-53
2023/02/23 10:43:02;;;;;;;10.90;7.47;;;23.60;47.30;;;16.35;57.98;95212.50;4911941;29;20047;-53
2023/02/23 10:45:38;;;;;;;11.63;7.38;;;24.00;46.70;;;16.77;56.11;95215.69;4910636;29;20026;-56
2023/02/23 10:48:15;;;;;;;10.93;7.68;;;24.30;45.80;;;17.07;53.99;95214.00;4923633;29;20034;-52
2023/02/23 10:50:48;;;;;;;10.32;8.20;;;24.50;45.10;;;16.92;56.20;95209.06;4922718;29;20431;-50
2023/02/23 10:53:34;;;;;;;11.77;7.65;;;24.80;44.60;;;17.06;53.70;95207.84;4893919;29;20069;-51
2023/02/23 10:56:19;;;;;;;16.40;8.45;;;24.70;43.60;;;16.98;54.95;95210.50;4906337;29;20036;-52
2023/02/23 10:58:54;;;;;;;11.20;7.35;;;24.60;43.10;;;17.07;54.31;95203.25;4923471;29;20589;-51
2023/02/23 11:01:43;;;;;;;9.60;7.70;;;24.60;43.10;;;17.05;54.13;95203.56;4910064;29;20043;-50
2023/02/23 11:04:21;;;;;;;12.23;7.55;;;24.60;42.80;;;17.02;52.53;95198.03;4906744;29;20576;-50
2023/02/23 11:06:49;;;;;;;11.43;7.43;;;24.70;42.60;;;16.88;53.00;95203.53;4906575;29;20039;-54
2023/02/23 11:09:32;;;;;;;11.68;7.50;;;24.70;42.40;;;17.09;53.65;95192.97;4908888;29;20031;-48
2023/02/23 11:12:02;;;;;;;9.82;7.63;;;24.80;42.00;;;17.44;51.90;95193.75;4906985;29;20023;-56
2023/02/23 11:14:31;;;;;;;15.48;8.05;;;25.00;41.80;;;17.53;51.10;95193.78;4911879;29;20126;-52
2023/02/23 11:16:59;;;;;;;11.82;7.65;;;25.30;41.50;;;17.79;49.93;95189.16;4931099;28;20043;-53
2023/02/23 11:19:36;;;;;;;10.13;6.90;;;25.50;41.30;;;17.57;50.34;95187.41;4907426;29;20026;-52
2023/02/23 11:22:15;;;;;;;10.40;6.65;;;25.30;40.70;;;17.46;50.29;95185.38;4910204;29;20494;-53
2023/02/23 11:24:41;;;;;;;10.07;7.30;;;25.00;40.50;;;17.26;51.04;95189.47;4911033;29;20020;-52
2023/02/23 11:27:24;;;;;;;13.27;7.38;;;24.70;40.80;;;17.28;50.11;95176.50;4910031;29;20038;-54
2023/02/23 11:29:57;;;;;;;11.95;8.02;;;24.50;40.60;;;17.18;51.82;95179.53;4942404;28;20034;-51
2023/02/23 11:32:37;;;;;;;11.13;6.85;;;24.20;40.80;;;16.98;52.42;95178.22;4896346;29;20371;-51
2023/02/23 11:35:28;;;;;;;10.40;7.03;;;24.00;40.90;;;16.71;51.33;95174.69;4908929;29;20016;-54
2023/02/23 11:37:55;;;;;;;11.13;6.63;;;23.70;40.80;;;16.75;52.37;95164.91;4911388;29;21300;-52
2023/02/23 11:40:30;;;;;;;11.85;6.68;;;23.50;41.00;;;16.79;52.03;95159.69;4940676;28;20020;-48
2023/02/23 11:43:15;;;;;;;11.65;7.20;;;23.30;41.10;;;16.71;52.67;95158.53;4927119;29;20024;-49
2023/02/23 11:45:55;;;;;;;10.85;7.10;;;23.30;41.30;;;16.97;52.14;95155.13;4917437;29;20034;-52
2023/02/23 11:48:58;;;;;;;9.40;6.70;;;23.80;41.30;;;17.30;51.19;95164.31;4925135;29;20046;-50
2023/02/23 11:51:40;;;;;;;11.32;7.20;;;24.30;41.20;;;17.61;52.76;95154.47;4909213;29;20024;-52
2023/02/23 11:54:33;;;;;;;13.90;6.95;;;24.90;40.80;;;17.77;50.27;95150.22;4910779;29;20258;-56
2023/02/23 11:57:05;;;;;;;8.40;6.32;;;25.00;40.40;;;17.81;49.05;95148.44;4907624;29;20031;-55